Time;durP1;ratioP1;P1;durP2;ratioP2;P2;SDS_P1;SDS_P2;PMS_P1;PMS_P2;Temp;Humidity;BMP_temperature;BMP_pressure;BME280_temperature;BME280_humidity;BME280_pressure;Samples;Min_cycle;Max_cycle;Signal;HPM_P1;HPM_P2
2022/10/08 00:01:05;;;;;;;;;6.40;5.20;;;;;15.96;51.02;101419.56;4990535;28;46573;-60
2022/10/08 00:03:32;;;;;;;;;5.80;4.00;;;;;15.95;51.32;101429.78;4983092;28;45831;-60
2022/10/08 00:06:06;;;;;;;;;7.60;3.60;;;;;15.84;51.41;101416.66;4989387;28;45424;-60
2022/10/08 00:08:34;;;;;;;;;5.40;4.20;;;;;15.64;51.44;101392.00;4989540;28;46125;-60
2022/10/08 00:11:05;;;;;;;;;5.80;5.40;;;;;15.88;51.70;101428.13;4988998;28;45495;-59
2022/10/08 00:13:49;;;;;;;;;6.60;5.20;;;;;15.41;51.43;101355.66;4990380;28;45355;-60
2022/10/08 00:16:18;;;;;;;;;7.00;5.40;;;;;15.85;51.72;101429.47;4974942;28;45464;-60
2022/10/08 00:18:44;;;;;;;;;4.80;4.40;;;;;15.82;51.36;101427.13;4989753;28;45465;-60
2022/10/08 00:21:15;;;;;;;;;6.60;5.60;;;;;15.77;51.40;101414.00;4990025;28;45440;-59
2022/10/08 00:23:45;;;;;;;;;6.00;5.00;;;;;15.73;51.67;101421.06;4990083;28;45425;-61
2022/10/08 00:26:11;;;;;;;;;4.40;4.20;;;;;15.82;51.66;101441.84;4988863;28;45530;-61
2022/10/08 00:28:37;;;;;;;;;5.00;5.00;;;;;15.76;51.81;101419.75;4975346;28;45427;-59
2022/10/08 00:31:11;;;;;;;;;4.00;4.00;;;;;15.78;52.17;101425.88;4991900;28;46682;-56
2022/10/08 00:33:37;;;;;;;;;4.20;4.20;;;;;15.76;51.96;101431.69;4987606;28;45471;-58
2022/10/08 00:36:06;;;;;;;;;4.20;4.20;;;;;15.63;52.72;101434.59;4977913;28;45429;-56
2022/10/08 00:38:32;;;;;;;;;5.00;4.00;;;;;15.54;52.91;101434.88;4978273;28;46037;-57
2022/10/08 00:40:58;;;;;;;;;7.00;6.00;;;;;15.57;53.13;101428.91;4994791;28;45825;-56
2022/10/08 00:43:44;;;;;;;;;4.00;2.80;;;;;15.49;53.16;101431.09;4996645;28;45512;-57
2022/10/08 00:46:24;;;;;;;;;4.00;4.00;;;;;15.48;52.98;101435.78;4997343;28;45472;-57
2022/10/08 00:49:12;;;;;;;;;6.40;4.80;;;;;15.35;53.32;101420.19;4996561;28;45297;-58
2022/10/08 00:51:40;;;;;;;;;5.00;4.00;;;;;15.36;53.29;101423.81;4997764;28;45606;-58
2022/10/08 00:54:06;;;;;;;;;5.40;3.60;;;;;15.40;53.40;101439.69;4997417;28;45555;-58
2022/10/08 00:56:33;;;;;;;;;4.00;4.00;;;;;15.17;53.96;101416.28;4996446;28;45485;-58
2022/10/08 00:58:59;;;;;;;;;5.80;4.80;;;;;15.23;53.87;101433.03;4996946;28;45389;-58
2022/10/08 01:01:24;;;;;;;;;5.00;4.50;;;;;15.27;53.73;101437.91;4996473;28;46519;-58
2022/10/08 01:03:50;;;;;;;;;5.50;3.75;;;;;15.29;54.29;101438.53;4997365;28;45481;-58
2022/10/08 01:06:39;;;;;;;;;4.00;4.00;;;;;15.31;54.11;101435.53;4980191;28;45401;-58
2022/10/08 01:09:10;;;;;;;;;5.00;4.60;;;;;15.35;53.90;101433.16;4997876;28;45404;-58
2022/10/08 01:11:55;;;;;;;;;5.60;3.20;;;;;15.34;53.99;101432.31;4980235;28;45233;-58
2022/10/08 01:14:39;;;;;;;;;5.20;5.20;;;;;15.33;53.92;101433.41;4996175;28;45319;-60
2022/10/08 01:17:05;;;;;;;;;3.20;3.20;;;;;15.22;54.69;101434.97;4997431;28;45354;-59
2022/10/08 01:19:41;;;;;;;;;5.60;4.00;;;;;15.25;54.54;101436.41;4997435;28;45180;-59
2022/10/08 01:22:22;;;;;;;;;4.80;4.80;;;;;15.20;54.33;101428.81;4995000;28;45992;-59
2022/10/08 01:27:41;;;;;;;;;3.40;3.40;;;;;15.30;54.13;101429.16;4982478;28;45280;-58
2022/10/08 01:30:10;;;;;;;;;3.00;3.00;;;;;15.26;54.32;101411.31;4979536;28;45447;-58
2022/10/08 01:32:47;;;;;;;;;2.80;2.00;;;;;15.26;54.65;101418.78;4995323;28;45436;-58
2022/10/08 01:35:19;;;;;;;;;4.80;3.40;;;;;15.30;54.83;101422.75;4979441;28;45466;-59
2022/10/08 01:37:44;;;;;;;;;6.80;3.00;;;;;15.28;54.50;101423.03;4995453;28;45430;-58
2022/10/08 01:40:17;;;;;;;;;6.00;4.75;;;;;15.09;54.46;101391.69;4963046;28;45429;-58
2022/10/08 01:42:43;;;;;;;;;4.00;3.00;;;;;15.16;54.77;101400.78;4976637;28;45825;-59
2022/10/08 01:45:18;;;;;;;;;4.20;3.80;;;;;15.26;55.00;101422.38;4988711;28;45456;-59
2022/10/08 01:47:44;;;;;;;;;4.40;3.60;;;;;15.25;55.38;101419.84;4962868;28;45439;-58
2022/10/08 01:50:17;;;;;;;;;4.80;4.80;;;;;15.26;55.45;101422.38;4992441;28;45273;-59
2022/10/08 01:52:47;;;;;;;;;2.00;2.00;;;;;15.09;55.38;101388.09;4978414;28;45401;-59
2022/10/08 01:55:15;;;;;;;;;2.80;2.60;;;;;15.09;55.34;101385.34;4995267;28;45402;-58
2022/10/08 01:57:41;;;;;;;;;2.40;2.40;;;;;14.80;55.36;101336.03;4979245;28;45395;-56
2022/10/08 02:00:09;;;;;;;;;4.50;3.25;;;;;14.94;56.50;101369.91;4978945;28;45593;-59
2022/10/08 02:02:35;;;;;;;;;2.00;2.00;;;;;14.91;56.22;101375.91;4978347;28;47247;-57
2022/10/08 02:05:00;;;;;;;;;1.50;1.00;;;;;15.17;56.05;101404.41;4994867;28;45383;-57
2022/10/08 02:07:30;;;;;;;;;3.00;1.50;;;;;15.14;55.84;101402.06;4996482;28;45216;-56
2022/10/08 02:10:13;;;;;;;;;2.40;2.40;;;;;15.17;56.54;101407.16;4979335;28;45828;-58
2022/10/08 02:12:39;;;;;;;;;4.00;2.40;;;;;14.91;56.13;101373.16;4995136;28;45603;-58
2022/10/08 02:15:11;;;;;;;;;2.25;2.25;;;;;15.14;56.29;101408.44;4978564;28;45332;-58
2022/10/08 02:17:54;;;;;;;;;2.20;1.20;;;;;15.21;56.37;101418.59;4996450;28;45411;-58
2022/10/08 02:20:21;;;;;;;;;1.00;1.00;;;;;15.13;56.35;101411.44;4996374;28;45591;-58
2022/10/08 02:22:59;;;;;;;;;3.20;2.80;;;;;14.93;56.67;101379.28;4994448;28;47223;-58
2022/10/08 02:25:53;;;;;;;;;3.00;2.00;;;;;15.17;56.25;101419.06;4979718;28;45511;-58
2022/10/08 02:28:33;;;;;;;;;3.20;2.00;;;;;14.91;56.82;101378.69;4995809;28;45416;-58
2022/10/08 02:31:05;;;;;;;;;2.20;1.80;;;;;15.16;56.99;101422.06;4994877;28;45379;-59
2022/10/08 02:33:35;;;;;;;;;1.00;1.00;;;;;15.16;57.01;101413.78;4994351;28;45760;-58
2022/10/08 02:36:00;;;;;;;;;1.60;1.00;;;;;14.96;57.46;101384.38;4994449;28;45398;-58
2022/10/08 02:38:37;;;;;;;;;1.50;1.50;;;;;15.15;57.40;101420.34;4995958;28;45406;-56
2022/10/08 02:41:03;;;;;;;;;1.40;1.40;;;;;15.09;57.67;101411.03;4994952;28;45497;-57
2022/10/08 02:43:30;;;;;;;;;1.40;1.40;;;;;15.07;57.93;101413.19;4994173;28;46239;-56
2022/10/08 02:46:02;;;;;;;;;2.00;1.80;;;;;15.00;58.06;101395.81;4994462;28;45452;-57
2022/10/08 02:48:32;;;;;;;;;3.60;1.60;;;;;14.86;58.33;101400.59;4978389;28;45360;-58
2022/10/08 02:51:05;;;;;;;;;4.20;1.40;;;;;14.88;58.62;101412.28;4978181;28;45591;-58
2022/10/08 02:53:32;;;;;;;;;2.00;2.00;;;;;14.93;58.68;101417.16;4978346;28;45608;-58
2022/10/08 02:56:12;;;;;;;;;2.40;2.00;;;;;14.84;58.42;101411.06;4994166;28;45422;-60
2022/10/08 02:58:38;;;;;;;;;1.80;1.00;;;;;14.79;59.44;101402.56;4995579;28;45450;-58
2022/10/08 03:01:06;;;;;;;;;1.00;1.00;;;;;14.78;59.71;101410.00;4994269;28;45586;-57
2022/10/08 03:03:34;;;;;;;;;3.40;2.60;;;;;14.62;59.95;101395.66;4994061;28;48220;-58
2022/10/08 03:06:06;;;;;;;;;4.80;2.00;;;;;14.43;59.90;101385.56;4994229;28;45416;-58
2022/10/08 03:08:32;;;;;;;;;2.00;2.00;;;;;14.51;61.47;101418.44;4968430;28;45540;-58
2022/10/08 03:10:57;;;;;;;;;3.25;2.00;;;;;14.23;60.82;101373.59;4974811;28;45380;-58
2022/10/08 03:13:23;;;;;;;;;2.00;2.00;;;;;14.59;60.17;101406.28;4941796;28;47568;-58
2022/10/08 03:15:52;;;;;;;;;4.00;2.25;;;;;14.40;60.87;101381.34;4942007;28;45487;-58
2022/10/08 03:18:18;;;;;;;;;2.40;2.40;;;;;14.44;60.65;101406.59;4958443;28;45392;-59
2022/10/08 03:20:48;;;;;;;;;4.25;3.00;;;;;14.50;61.05;101403.81;4974619;28;45297;-58
2022/10/08 03:23:15;;;;;;;;;1.40;1.20;;;;;14.44;61.00;101412.97;4958139;28;47609;-58
2022/10/08 03:25:41;;;;;;;;;3.60;2.60;;;;;14.54;61.07;101418.03;4974193;28;45228;-58
2022/10/08 03:28:06;;;;;;;;;1.00;1.00;;;;;14.39;60.90;101404.50;4958207;28;45343;-58
2022/10/08 03:30:32;;;;;;;;;1.50;1.50;;;;;14.56;61.43;101431.63;4980525;28;45660;-58
2022/10/08 03:32:57;;;;;;;;;2.00;2.00;;;;;14.58;60.91;101433.06;4989702;28;47356;-58
2022/10/08 03:35:24;;;;;;;;;3.20;2.80;;;;;14.52;61.59;101430.34;4989789;28;45783;-58
2022/10/08 03:37:51;;;;;;;;;1.25;1.00;;;;;14.46;62.17;101432.94;4994329;28;45814;-58
2022/10/08 03:40:17;;;;;;;;;1.60;1.60;;;;;14.41;62.13;101442.97;4994227;28;45521;-59
2022/10/08 03:42:42;;;;;;;;;2.00;2.00;;;;;14.52;61.42;101438.66;4992715;28;46392;-59
2022/10/08 03:45:08;;;;;;;;;3.00;2.00;;;;;14.57;61.50;101439.66;4993738;28;45376;-58
2022/10/08 03:47:33;;;;;;;;;1.00;1.00;;;;;13.98;61.59;101369.91;4992971;28;45343;-58
2022/10/08 03:49:59;;;;;;;;;1.75;1.75;;;;;14.39;61.36;101437.66;4994836;28;45437;-58
2022/10/08 03:52:24;;;;;;;;;3.00;2.00;;;;;14.49;62.35;101457.34;4993627;28;45372;-57
2022/10/08 03:54:50;;;;;;;;;1.00;1.00;;;;;14.52;61.77;101461.59;4995016;28;45454;-58
2022/10/08 03:57:15;;;;;;;;;1.25;1.25;;;;;14.53;61.95;101462.44;4995056;28;45223;-58
2022/10/08 03:59:41;;;;;;;;;2.00;1.00;;;;;14.49;62.36;101454.59;4994064;28;45356;-59
2022/10/08 04:02:06;;;;;;;;;4.00;2.50;;;;;14.40;62.30;101457.84;4994445;28;45828;-58
2022/10/08 04:04:32;;;;;;;;;1.75;1.75;;;;;14.49;62.48;101462.03;4993654;28;45345;-58
2022/10/08 04:06:57;;;;;;;;;3.25;3.25;;;;;14.54;62.59;101464.13;4993570;28;45462;-59
2022/10/08 04:09:23;;;;;;;;;2.50;2.50;;;;;14.51;62.49;101465.41;4994754;28;45412;-59
2022/10/08 04:11:49;;;;;;;;;2.25;1.75;;;;;14.46;62.89;101466.06;4994646;28;45435;-58
2022/10/08 04:14:14;;;;;;;;;1.50;1.50;;;;;14.43;62.46;101458.25;4994374;28;45316;-56
2022/10/08 04:16:40;;;;;;;;;3.00;1.00;;;;;14.52;62.30;101469.03;4996439;28;45387;-57
2022/10/08 04:19:05;;;;;;;;;1.75;1.75;;;;;14.53;62.92;101473.47;4996801;28;45588;-59
2022/10/08 04:21:31;;;;;;;;;2.75;1.00;;;;;14.55;62.33;101476.84;4996622;28;46046;-57
2022/10/08 04:23:56;;;;;;;;;2.75;2.00;;;;;14.55;62.08;101471.34;4997591;28;45442;-58
2022/10/08 04:26:22;;;;;;;;;3.00;3.00;;;;;14.55;62.63;101486.00;4998295;28;45445;-58
2022/10/08 04:28:48;;;;;;;;;3.00;2.25;;;;;14.45;62.52;101463.53;4997891;28;45342;-58
2022/10/08 04:31:17;;;;;;;;;2.25;2.25;;;;;14.55;63.41;101494.28;4997961;28;46595;-58
2022/10/08 04:33:43;;;;;;;;;4.00;2.60;;;;;14.58;63.18;101496.59;4972856;28;45553;-58
2022/10/08 04:36:10;;;;;;;;;3.80;1.20;;;;;14.36;64.00;101457.44;4993762;28;45511;-58
2022/10/08 04:38:35;;;;;;;;;1.80;1.80;;;;;14.58;63.77;101498.53;4998014;28;45440;-59
2022/10/08 04:41:08;;;;;;;;;2.25;1.75;;;;;14.61;63.84;101498.06;4996234;28;45823;-58
2022/10/08 04:43:34;;;;;;;;;3.00;1.80;;;;;14.62;64.67;101499.78;4996725;28;45466;-57
2022/10/08 04:46:00;;;;;;;;;2.40;1.20;;;;;14.57;64.58;101496.84;4997811;28;45409;-58
2022/10/08 04:48:26;;;;;;;;;4.00;3.00;;;;;14.57;64.68;101499.59;4996505;28;45561;-60
2022/10/08 04:50:56;;;;;;;;;4.00;2.50;;;;;14.59;64.85;101514.03;4995888;28;45797;-58
2022/10/08 04:53:21;;;;;;;;;3.40;1.20;;;;;14.52;65.35;101511.31;4996232;28;45528;-57
2022/10/08 04:55:47;;;;;;;;;2.25;2.00;;;;;14.55;65.31;101523.81;4996058;28;45231;-58
2022/10/08 04:58:12;;;;;;;;;2.50;2.00;;;;;14.54;65.25;101520.22;4997944;28;45456;-58
2022/10/08 05:00:38;;;;;;;;;3.00;2.00;;;;;14.22;65.80;101463.00;4997566;28;46574;-60
2022/10/08 05:03:03;;;;;;;;;3.00;2.00;;;;;14.53;65.32;101524.06;4979410;28;45272;-58
2022/10/08 05:05:29;;;;;;;;;2.00;2.00;;;;;14.57;65.52;101521.69;4997856;28;45875;-59
2022/10/08 05:07:55;;;;;;;;;1.75;1.75;;;;;14.57;65.38;101517.00;4997627;28;45451;-59
2022/10/08 05:10:22;;;;;;;;;4.40;3.40;;;;;14.57;65.71;101518.94;4995758;28;46149;-59
2022/10/08 05:12:48;;;;;;;;;5.00;2.20;;;;;14.55;65.48;101523.81;4997623;28;45367;-59
2022/10/08 05:15:14;;;;;;;;;2.00;1.25;;;;;14.55;65.66;101524.69;4997440;28;45298;-59
2022/10/08 05:17:39;;;;;;;;;3.75;2.50;;;;;14.43;65.42;101507.09;4997490;28;45538;-58
2022/10/08 05:20:05;;;;;;;;;2.75;2.00;;;;;14.47;65.60;101516.66;4979061;28;46843;-60
2022/10/08 05:22:31;;;;;;;;;1.50;1.50;;;;;14.49;65.66;101528.31;4996842;28;45716;-59
2022/10/08 05:24:56;;;;;;;;;3.50;3.50;;;;;14.54;65.73;101539.56;4997069;28;45248;-59
2022/10/08 05:27:22;;;;;;;;;3.50;2.50;;;;;14.53;65.42;101537.88;4994570;28;45866;-59
2022/10/08 05:29:47;;;;;;;;;2.00;2.00;;;;;14.45;65.29;101524.28;4996967;28;45496;-59
2022/10/08 05:32:13;;;;;;;;;2.50;2.00;;;;;14.43;65.53;101530.03;4995869;28;45467;-59
2022/10/08 05:34:38;;;;;;;;;4.50;2.00;;;;;14.49;65.82;101539.34;4990586;28;45464;-60
2022/10/08 05:37:04;;;;;;;;;4.25;3.50;;;;;14.34;66.77;101546.00;4995156;28;45356;-59
2022/10/08 05:39:29;;;;;;;;;4.00;2.00;;;;;14.23;66.99;101542.00;4990832;28;45773;-59
2022/10/08 05:41:55;;;;;;;;;1.00;1.00;;;;;14.20;67.26;101550.72;4995775;28;45535;-59
2022/10/08 05:44:20;;;;;;;;;1.50;1.50;;;;;14.12;66.92;101550.94;4997252;28;45437;-59
2022/10/08 05:46:46;;;;;;;;;2.00;2.00;;;;;14.01;66.78;101535.91;4997253;28;45886;-59
2022/10/08 05:49:19;;;;;;;;;4.25;3.00;;;;;14.21;66.44;101557.91;4995618;28;48082;-59
2022/10/08 05:51:45;;;;;;;;;3.20;3.00;;;;;14.27;66.96;101559.00;4996848;28;45377;-59
2022/10/08 05:54:11;;;;;;;;;5.80;4.40;;;;;14.12;67.37;101559.22;4995687;28;45583;-60
2022/10/08 05:56:36;;;;;;;;;2.50;1.25;;;;;14.01;67.25;101549.69;4997209;28;45437;-58
2022/10/08 05:59:02;;;;;;;;;4.00;2.50;;;;;13.96;67.43;101544.84;4997048;28;46367;-58
2022/10/08 06:01:30;;;;;;;;;3.25;3.25;;;;;13.84;67.28;101521.72;4997003;28;45346;-57
2022/10/08 06:03:57;;;;;;;;;4.00;3.20;;;;;13.87;67.89;101543.34;4995599;28;45415;-58
2022/10/08 06:06:23;;;;;;;;;2.40;2.00;;;;;13.61;68.11;101513.91;4997075;28;45654;-58
2022/10/08 06:08:55;;;;;;;;;2.75;2.75;;;;;13.92;67.64;101567.53;4996393;28;46328;-58
2022/10/08 06:11:21;;;;;;;;;4.40;2.80;;;;;13.96;67.27;101564.16;4996599;28;45363;-56
2022/10/08 06:13:46;;;;;;;;;3.25;3.25;;;;;14.01;66.91;101565.41;4996846;28;45314;-59
2022/10/08 06:16:12;;;;;;;;;4.50;4.00;;;;;14.04;66.78;101570.50;4997335;28;45563;-56
2022/10/08 06:18:39;;;;;;;;;4.00;2.50;;;;;13.87;66.76;101548.03;4995083;28;46746;-57
2022/10/08 06:21:12;;;;;;;;;4.00;2.60;;;;;14.09;66.16;101568.78;4979039;28;45564;-58
2022/10/08 06:23:38;;;;;;;;;3.20;2.40;;;;;13.96;66.35;101541.22;4978657;28;45560;-59
2022/10/08 06:26:05;;;;;;;;;2.00;2.00;;;;;14.17;66.43;101575.13;4996644;28;45559;-57
2022/10/08 06:28:31;;;;;;;;;4.40;3.80;;;;;14.15;66.73;101580.88;4995315;28;46884;-59
2022/10/08 06:30:58;;;;;;;;;4.80;4.80;;;;;14.14;66.45;101581.94;4996028;28;45409;-58
2022/10/08 06:33:23;;;;;;;;;2.60;2.60;;;;;14.09;65.97;101579.84;4996338;28;45434;-58
2022/10/08 06:35:49;;;;;;;;;4.75;3.00;;;;;14.16;66.41;101593.63;4995965;28;45382;-58
2022/10/08 06:38:14;;;;;;;;;2.75;2.00;;;;;14.21;65.63;101596.56;4978104;28;45369;-58
2022/10/08 06:40:40;;;;;;;;;6.25;4.50;;;;;14.23;65.79;101601.88;4995963;28;45307;-58
2022/10/08 06:43:16;;;;;;;;;3.00;3.00;;;;;14.22;66.50;101614.00;4995843;28;45382;-58
2022/10/08 06:45:42;;;;;;;;;3.80;3.80;;;;;14.24;65.86;101609.09;4996294;28;45349;-58
2022/10/08 06:48:08;;;;;;;;;4.60;3.00;;;;;14.31;66.00;101614.63;4995750;28;46458;-59
2022/10/08 06:50:34;;;;;;;;;1.75;1.75;;;;;14.11;66.12;101582.38;4994430;28;45348;-59
2022/10/08 06:53:00;;;;;;;;;3.75;3.75;;;;;14.30;65.63;101607.41;4995909;28;45327;-58
2022/10/08 06:55:26;;;;;;;;;4.25;3.25;;;;;14.20;66.71;101624.41;4994875;28;45740;-58
2022/10/08 06:57:51;;;;;;;;;7.80;7.00;;;;;14.23;66.18;101630.34;4994519;28;45459;-59
2022/10/08 07:00:17;;;;;;;;;5.00;2.75;;;;;13.67;66.37;101535.09;4994143;28;45547;-59
2022/10/08 07:02:43;;;;;;;;;4.75;3.50;;;;;14.31;66.20;101632.03;4995813;28;45311;-59
2022/10/08 07:05:08;;;;;;;;;8.25;4.75;;;;;13.97;65.87;101576.03;4996048;28;45608;-57
2022/10/08 07:07:34;;;;;;;;;2.50;2.50;;;;;14.21;66.02;101610.38;4994349;28;45289;-58
2022/10/08 07:10:00;;;;;;;;;2.00;2.00;;;;;14.27;66.13;101613.34;4995541;28;45174;-58
2022/10/08 07:12:25;;;;;;;;;4.00;3.50;;;;;14.34;66.17;101645.41;4995498;28;45258;-59
2022/10/08 07:14:51;;;;;;;;;7.25;3.00;;;;;14.36;66.43;101651.56;4995917;28;45261;-55
2022/10/08 07:17:16;;;;;;;;;5.50;5.50;;;;;14.41;66.24;101655.59;4995364;28;45579;-58
2022/10/08 07:19:42;;;;;;;;;3.50;3.50;;;;;14.23;65.77;101632.25;4989206;28;45271;-59
2022/10/08 07:22:07;;;;;;;;;5.25;4.00;;;;;14.35;65.75;101654.53;4954159;28;45819;-58
2022/10/08 07:24:33;;;;;;;;;4.00;4.00;;;;;14.36;65.94;101653.50;4974739;28;45386;-58
2022/10/08 07:26:59;;;;;;;;;8.75;3.75;;;;;14.23;66.16;101635.03;4974306;28;46384;-58
2022/10/08 07:29:25;;;;;;;;;4.25;4.25;;;;;14.44;66.26;101664.31;4974150;28;45340;-58
2022/10/08 07:31:50;;;;;;;;;6.25;5.00;;;;;14.45;65.76;101670.66;4975985;28;45473;-58
2022/10/08 07:34:16;;;;;;;;;4.50;4.00;;;;;14.44;66.50;101674.50;4974544;28;45644;-58
2022/10/08 07:36:41;;;;;;;;;4.00;4.00;;;;;14.45;66.71;101681.72;4975985;28;46317;-62
2022/10/08 07:39:13;;;;;;;;;4.50;4.00;;;;;14.39;66.47;101683.44;4975723;28;45331;-58
2022/10/08 07:41:38;;;;;;;;;8.00;5.20;;;;;14.41;66.86;101667.47;4976184;28;45425;-58
2022/10/08 07:44:04;;;;;;;;;4.25;4.25;;;;;14.47;66.41;101685.97;4958283;28;45409;-59
2022/10/08 07:46:34;;;;;;;;;4.50;4.00;;;;;14.44;66.85;101675.34;4975623;28;46463;-58
2022/10/08 07:49:00;;;;;;;;;3.80;3.80;;;;;14.27;66.71;101654.75;4974657;28;45491;-58
2022/10/08 07:51:27;;;;;;;;;8.20;6.40;;;;;14.53;66.53;101697.22;4973373;28;45252;-58
2022/10/08 07:53:52;;;;;;;;;5.60;4.00;;;;;14.35;66.70;101684.91;4974925;28;45918;-58
2022/10/08 07:56:19;;;;;;;;;5.00;4.00;;;;;14.23;67.26;101657.09;4975346;28;46705;-59
2022/10/08 07:58:46;;;;;;;;;4.60;4.60;;;;;14.52;66.66;101704.66;4975178;28;45377;-57
2022/10/08 08:01:14;;;;;;;;;7.40;6.00;;;;;14.58;66.97;101714.00;4974353;28;45395;-59
2022/10/08 08:03:40;;;;;;;;;8.60;3.20;;;;;14.58;66.58;101705.72;4975459;28;45323;-60
2022/10/08 08:06:08;;;;;;;;;6.00;5.00;;;;;14.58;66.46;101703.78;4975067;28;45480;-60
2022/10/08 08:08:35;;;;;;;;;3.40;3.20;;;;;14.68;66.98;101719.09;4957803;28;45588;-59
2022/10/08 08:11:01;;;;;;;;;4.80;4.00;;;;;14.62;67.03;101695.94;4993851;28;45410;-60
2022/10/08 08:13:27;;;;;;;;;8.20;4.80;;;;;14.53;66.37;101669.59;4994826;28;45609;-59
2022/10/08 08:16:01;;;;;;;;;3.80;3.80;;;;;14.77;66.26;101720.56;4993433;28;46833;-60
2022/10/08 08:18:30;;;;;;;;;9.40;5.00;;;;;14.62;66.33;101704.22;4994780;28;45423;-59
2022/10/08 08:20:59;;;;;;;;;4.80;4.80;;;;;14.74;66.71;101730.13;4993729;28;45245;-59
2022/10/08 08:23:29;;;;;;;;;4.40;4.00;;;;;14.75;66.88;101731.00;4993380;28;45474;-58
2022/10/08 08:25:55;;;;;;;;;7.40;4.00;;;;;14.79;67.24;101734.19;4984311;28;45774;-61
2022/10/08 08:28:22;;;;;;;;;6.50;4.00;;;;;14.88;66.71;101735.63;4993288;28;45656;-61
2022/10/08 08:30:48;;;;;;;;;5.60;4.60;;;;;14.86;66.56;101743.31;4993220;28;45415;-60
2022/10/08 08:33:13;;;;;;;;;4.75;4.75;;;;;14.87;66.36;101743.09;4993185;28;45447;-61
2022/10/08 08:35:39;;;;;;;;;4.50;4.50;;;;;14.85;65.94;101738.84;4994388;28;46393;-59
2022/10/08 08:38:04;;;;;;;;;8.50;5.25;;;;;14.77;67.12;101715.91;4994510;28;45378;-60
2022/10/08 08:40:30;;;;;;;;;6.75;6.00;;;;;15.07;65.98;101755.16;4993408;28;45888;-59
2022/10/08 08:42:55;;;;;;;;;4.75;3.75;;;;;15.07;65.90;101766.22;4976844;28;45515;-59
2022/10/08 08:45:26;;;;;;;;;3.25;2.75;;;;;15.04;66.02;101759.19;4994204;28;45515;-57
2022/10/08 08:48:04;;;;;;;;;4.60;3.20;;;;;15.04;65.64;101759.19;4994075;28;45476;-58
2022/10/08 08:50:36;;;;;;;;;7.40;4.00;;;;;15.07;65.71;101769.84;4977090;28;45469;-57
2022/10/08 08:53:02;;;;;;;;;4.80;2.00;;;;;15.04;65.54;101768.34;4994432;28;45485;-58
2022/10/08 08:55:40;;;;;;;;;5.50;3.25;;;;;14.90;65.20;101742.63;4992845;28;45450;-60
2022/10/08 08:58:18;;;;;;;;;5.80;4.20;;;;;15.12;64.98;101778.34;4994289;28;45427;-59
2022/10/08 09:00:55;;;;;;;;;3.00;3.00;;;;;14.93;64.46;101738.59;4993969;28;45300;-60
2022/10/08 09:03:27;;;;;;;;;2.40;2.40;;;;;15.18;65.12;101777.47;4995997;28;45575;-58
2022/10/08 09:05:56;;;;;;;;;6.60;4.00;;;;;15.23;64.02;101771.28;4997293;28;45456;-54
2022/10/08 09:08:25;;;;;;;;;5.20;3.00;;;;;15.25;63.98;101769.13;4996480;28;45383;-58
2022/10/08 09:10:52;;;;;;;;;5.00;3.00;;;;;15.33;63.68;101776.34;4995994;28;45387;-56
2022/10/08 09:13:23;;;;;;;;;4.60;3.20;;;;;15.24;62.87;101758.28;4996504;28;45456;-55
2022/10/08 09:15:49;;;;;;;;;5.40;2.20;;;;;15.32;62.81;101778.25;4979388;28;47547;-60
2022/10/08 09:18:15;;;;;;;;;4.75;3.50;;;;;15.25;62.62;101762.72;4979468;28;45351;-59
2022/10/08 09:20:40;;;;;;;;;6.00;4.00;;;;;15.38;62.33;101776.50;4996007;28;45463;-58
2022/10/08 09:23:19;;;;;;;;;8.00;4.75;;;;;15.45;61.65;101779.25;4996001;28;45438;-58
2022/10/08 09:25:53;;;;;;;;;2.80;2.40;;;;;15.56;61.83;101799.84;4995847;28;45375;-58
2022/10/08 09:28:40;;;;;;;;;4.00;3.20;;;;;15.56;60.24;101792.41;4963611;28;46180;-58
2022/10/08 09:31:31;;;;;;;;;2.40;2.00;;;;;15.41;60.42;101766.94;4928085;28;45978;-58
2022/10/08 09:34:03;;;;;;;;;3.40;2.00;;;;;15.69;59.91;101804.50;4983405;28;45579;-61
2022/10/08 09:36:53;;;;;;;;;4.20;2.80;;;;;15.81;59.47;101802.69;4955451;28;46441;-57
2022/10/08 09:39:23;;;;;;;;;6.00;3.60;;;;;15.90;58.71;101802.47;4988841;28;45471;-58
2022/10/08 09:42:18;;;;;;;;;2.60;2.00;;;;;15.92;57.97;101808.66;4987445;28;45560;-61
2022/10/08 09:44:58;;;;;;;;;1.00;1.00;;;;;16.04;57.79;101809.63;4977950;28;45930;-59
2022/10/08 09:47:24;;;;;;;;;6.00;2.60;;;;;16.17;57.27;101810.63;4990060;28;46170;-61
2022/10/08 09:50:17;;;;;;;;;2.80;2.60;;;;;16.19;57.36;101806.56;4990211;28;45444;-61
2022/10/08 09:52:44;;;;;;;;;5.20;2.00;;;;;16.33;56.61;101807.31;4990802;28;45441;-59
2022/10/08 09:55:20;;;;;;;;;2.80;2.00;;;;;16.37;56.51;101805.78;4988805;28;45580;-58
2022/10/08 09:57:48;;;;;;;;;2.40;2.40;;;;;16.39;56.34;101791.72;4954571;28;47488;-59
2022/10/08 10:00:34;;;;;;;;;6.60;2.00;;;;;16.60;56.05;101809.03;4971986;28;45506;-58
2022/10/08 10:03:00;;;;;;;;;3.60;1.40;;;;;16.82;54.62;101815.00;4987169;28;45479;-61
2022/10/08 10:05:27;;;;;;;;;3.00;3.00;;;;;16.92;54.51;101803.41;4971168;28;45661;-60
2022/10/08 10:07:53;;;;;;;;;2.00;2.00;;;;;17.07;54.40;101798.34;4973406;28;46445;-61
2022/10/08 10:10:35;;;;;;;;;5.50;4.75;;;;;17.26;54.56;101800.28;4972972;28;45522;-60
2022/10/08 10:13:21;;;;;;;;;3.00;3.00;;;;;17.33;54.01;101801.91;4973581;28;45488;-61
2022/10/08 10:16:10;;;;;;;;;9.20;5.40;;;;;17.37;54.17;101807.84;4957621;28;45504;-61
2022/10/08 10:18:46;;;;;;;;;4.80;3.40;;;;;17.42;53.28;101813.53;4980975;28;45472;-60
2022/10/08 10:21:14;;;;;;;;;4.20;2.20;;;;;17.33;52.76;101807.44;4972445;28;45475;-60
2022/10/08 10:23:44;;;;;;;;;3.80;3.80;;;;;17.46;52.70;101811.16;4954348;28;45489;-58
2022/10/08 10:26:20;;;;;;;;;2.00;2.00;;;;;17.00;52.00;101727.34;4966339;28;45321;-60
2022/10/08 10:29:09;;;;;;;;;7.60;3.40;;;;;17.63;51.44;101816.91;4990517;28;45829;-61
2022/10/08 10:31:41;;;;;;;;;3.40;2.00;;;;;17.53;51.36;101808.28;4970902;28;45636;-60
2022/10/08 10:34:12;;;;;;;;;4.80;3.20;;;;;17.45;51.79;101817.78;4974226;28;45679;-60
2022/10/08 10:36:50;;;;;;;;;3.00;3.00;;;;;17.32;51.87;101819.63;4973017;28;45495;-60
2022/10/08 10:39:28;;;;;;;;;2.40;2.40;;;;;17.30;52.05;101810.66;4989976;28;45787;-59
2022/10/08 10:41:58;;;;;;;;;4.00;2.80;;;;;17.45;52.36;101815.00;4989989;28;45786;-59
2022/10/08 10:44:44;;;;;;;;;4.40;3.60;;;;;17.74;51.47;101805.03;4990834;28;46266;-59
2022/10/08 10:47:09;;;;;;;;;4.00;3.00;;;;;17.92;50.24;101811.59;4992380;28;45414;-60
2022/10/08 10:49:37;;;;;;;;;6.00;4.00;;;;;17.82;51.25;101816.88;4990357;28;45914;-59
2022/10/08 10:52:17;;;;;;;;;1.00;1.00;;;;;17.66;51.55;101810.88;4990139;28;45489;-60
2022/10/08 10:55:06;;;;;;;;;3.40;3.40;;;;;17.81;50.60;101815.16;4988615;28;45487;-60
2022/10/08 10:58:09;;;;;;;;;4.40;3.20;;;;;18.10;50.71;101826.56;4986438;28;45666;-60
2022/10/08 11:00:54;;;;;;;;;10.60;8.80;;;;;18.33;49.51;101819.34;4977469;28;45408;-60
2022/10/08 11:03:56;;;;;;;;;4.80;3.00;;;;;18.53;49.37;101817.09;4991411;28;45418;-60
2022/10/08 11:06:53;;;;;;;;;4.40;3.40;;;;;18.73;48.35;101815.91;4973240;28;45494;-60
2022/10/08 11:09:32;;;;;;;;;4.20;3.00;;;;;18.90;47.48;101813.25;4981130;28;45306;-59
2022/10/08 11:12:03;;;;;;;;;5.40;3.20;;;;;18.93;47.13;101795.22;4991238;28;46169;-60
2022/10/08 11:14:47;;;;;;;;;2.00;0.40;;;;;18.88;45.96;101823.78;4991742;28;45856;-54
2022/10/08 11:17:12;;;;;;;;;4.40;2.60;;;;;18.50;45.94;101784.22;4991976;28;45481;-58
2022/10/08 11:20:10;;;;;;;;;2.75;2.50;;;;;18.65;46.49;101810.69;5010130;28;45401;-59
2022/10/08 11:22:59;;;;;;;;;3.60;2.80;;;;;19.07;46.68;101815.34;4985865;28;46893;-59
2022/10/08 11:25:39;;;;;;;;;5.80;1.00;;;;;19.07;45.42;101773.59;4977097;28;45433;-58
2022/10/08 11:28:29;;;;;;;;;2.20;2.20;;;;;19.56;44.69;101776.03;4994295;28;45340;-59
2022/10/08 11:31:17;;;;;;;;;2.60;2.60;;;;;20.21;44.15;101786.16;4995096;28;45444;-57
2022/10/08 11:33:43;;;;;;;;;1.00;1.00;;;;;20.48;43.01;101817.00;4977994;28;45713;-59
2022/10/08 11:36:20;;;;;;;;;2.20;1.40;;;;;20.04;43.91;101807.34;4995539;28;45233;-59
2022/10/08 11:39:13;;;;;;;;;2.20;2.20;;;;;19.65;44.10;101815.47;4978456;28;45559;-59
2022/10/08 11:41:46;;;;;;;;;1.60;1.60;;;;;19.50;44.33;101807.63;5022980;28;45595;-60